sensor_id;sensor_type;location;lat;lon;timestamp;P1;durP1;ratioP1;P2;durP2;ratioP2
66830;SDS011;53739;44.224;22.528;2023-03-02T00:01:46;298.88;;;118.45;;
66830;SDS011;53739;44.224;22.528;2023-03-02T00:04:16;151.10;;;77.20;;
66830;SDS011;53739;44.224;22.528;2023-03-02T00:06:42;164.63;;;78.80;;
66830;SDS011;53739;44.224;22.528;2023-03-02T00:09:08;135.55;;;71.93;;
66830;SDS011;53739;44.224;22.528;2023-03-02T00:11:34;131.20;;;68.00;;
66830;SDS011;53739;44.224;22.528;2023-03-02T00:14:02;140.52;;;67.57;;
66830;SDS011;53739;44.224;22.528;2023-03-02T00:16:29;137.80;;;68.55;;
66830;SDS011;53739;44.224;22.528;2023-03-02T00:18:54;142.80;;;72.05;;
66830;SDS011;53739;44.224;22.528;2023-03-02T00:21:20;149.30;;;72.47;;
66830;SDS011;53739;44.224;22.528;2023-03-02T00:23:48;139.93;;;73.10;;
66830;SDS011;53739;44.224;22.528;2023-03-02T00:26:15;148.57;;;76.47;;
66830;SDS011;53739;44.224;22.528;2023-03-02T00:28:41;149.98;;;75.32;;
66830;SDS011;53739;44.224;22.528;2023-03-02T00:31:07;163.65;;;81.45;;
66830;SDS011;53739;44.224;22.528;2023-03-02T00:33:33;165.93;;;81.63;;
66830;SDS011;53739;44.224;22.528;2023-03-02T00:35:58;145.68;;;73.15;;
66830;SDS011;53739;44.224;22.528;2023-03-02T00:38:25;175.48;;;83.43;;
66830;SDS011;53739;44.224;22.528;2023-03-02T00:40:51;224.55;;;96.70;;
66830;SDS011;53739;44.224;22.528;2023-03-02T00:43:19;155.32;;;78.95;;
66830;SDS011;53739;44.224;22.528;2023-03-02T00:45:46;181.32;;;82.90;;
66830;SDS011;53739;44.224;22.528;2023-03-02T00:48:12;209.52;;;94.55;;
66830;SDS011;53739;44.224;22.528;2023-03-02T00:50:38;173.90;;;82.95;;
66830;SDS011;53739;44.224;22.528;2023-03-02T00:53:08;163.07;;;77.72;;
66830;SDS011;53739;44.224;22.528;2023-03-02T00:55:34;158.23;;;70.38;;
66830;SDS011;53739;44.224;22.528;2023-03-02T00:58:01;158.07;;;74.93;;
66830;SDS011;53739;44.224;22.528;2023-03-02T01:00:27;135.20;;;68.70;;
66830;SDS011;53739;44.224;22.528;2023-03-02T01:02:54;145.65;;;68.75;;
66830;SDS011;53739;44.224;22.528;2023-03-02T01:05:20;172.70;;;82.40;;
66830;SDS011;53739;44.224;22.528;2023-03-02T01:07:45;136.25;;;64.85;;
66830;SDS011;53739;44.224;22.528;2023-03-02T01:10:12;134.55;;;68.03;;
66830;SDS011;53739;44.224;22.528;2023-03-02T01:12:38;136.85;;;69.50;;
66830;SDS011;53739;44.224;22.528;2023-03-02T01:15:05;125.07;;;63.22;;
66830;SDS011;53739;44.224;22.528;2023-03-02T01:17:32;112.55;;;58.17;;
66830;SDS011;53739;44.224;22.528;2023-03-02T01:19:58;125.40;;;64.97;;
66830;SDS011;53739;44.224;22.528;2023-03-02T01:22:24;120.28;;;63.53;;
66830;SDS011;53739;44.224;22.528;2023-03-02T01:24:50;112.10;;;58.70;;
66830;SDS011;53739;44.224;22.528;2023-03-02T01:27:17;119.97;;;59.78;;
66830;SDS011;53739;44.224;22.528;2023-03-02T01:29:43;116.85;;;58.88;;
66830;SDS011;53739;44.224;22.528;2023-03-02T01:32:09;107.60;;;56.15;;
66830;SDS011;53739;44.224;22.528;2023-03-02T01:34:35;105.07;;;55.67;;
66830;SDS011;53739;44.224;22.528;2023-03-02T01:37:02;104.75;;;55.03;;
66830;SDS011;53739;44.224;22.528;2023-03-02T01:39:27;101.60;;;54.63;;
66830;SDS011;53739;44.224;22.528;2023-03-02T01:41:54;107.78;;;54.00;;
66830;SDS011;53739;44.224;22.528;2023-03-02T01:44:33;93.85;;;50.40;;
66830;SDS011;53739;44.224;22.528;2023-03-02T01:47:02;97.97;;;53.85;;
66830;SDS011;53739;44.224;22.528;2023-03-02T01:49:31;98.40;;;50.97;;
66830;SDS011;53739;44.224;22.528;2023-03-02T01:51:59;98.40;;;51.03;;
66830;SDS011;53739;44.224;22.528;2023-03-02T01:54:25;104.72;;;52.63;;
66830;SDS011;53739;44.224;22.528;2023-03-02T01:56:52;93.60;;;49.55;;
66830;SDS011;53739;44.224;22.528;2023-03-02T01:59:22;93.30;;;49.35;;
66830;SDS011;53739;44.224;22.528;2023-03-02T02:01:51;92.93;;;48.78;;
66830;SDS011;53739;44.224;22.528;2023-03-02T02:04:19;80.82;;;44.45;;
66830;SDS011;53739;44.224;22.528;2023-03-02T02:06:48;85.88;;;47.30;;
66830;SDS011;53739;44.224;22.528;2023-03-02T02:09:15;90.35;;;45.13;;
66830;SDS011;53739;44.224;22.528;2023-03-02T02:11:44;90.18;;;46.63;;
66830;SDS011;53739;44.224;22.528;2023-03-02T02:14:10;94.03;;;46.83;;
66830;SDS011;53739;44.224;22.528;2023-03-02T02:16:37;87.45;;;43.90;;
66830;SDS011;53739;44.224;22.528;2023-03-02T02:19:17;87.95;;;44.47;;
66830;SDS011;53739;44.224;22.528;2023-03-02T02:22:01;91.28;;;48.38;;
66830;SDS011;53739;44.224;22.528;2023-03-02T02:24:32;86.03;;;45.65;;
66830;SDS011;53739;44.224;22.528;2023-03-02T02:27:05;85.75;;;42.83;;
66830;SDS011;53739;44.224;22.528;2023-03-02T02:29:33;89.25;;;45.13;;
66830;SDS011;53739;44.224;22.528;2023-03-02T02:32:14;82.97;;;44.10;;
66830;SDS011;53739;44.224;22.528;2023-03-02T02:34:43;85.72;;;44.72;;
66830;SDS011;53739;44.224;22.528;2023-03-02T02:37:25;91.70;;;44.38;;
66830;SDS011;53739;44.224;22.528;2023-03-02T02:39:57;79.85;;;42.17;;
66830;SDS011;53739;44.224;22.528;2023-03-02T02:44:55;88.20;;;47.17;;
66830;SDS011;53739;44.224;22.528;2023-03-02T02:47:23;83.90;;;44.85;;
66830;SDS011;53739;44.224;22.528;2023-03-02T02:49:50;83.35;;;45.20;;
66830;SDS011;53739;44.224;22.528;2023-03-02T02:52:18;82.00;;;44.65;;
66830;SDS011;53739;44.224;22.528;2023-03-02T02:54:49;80.18;;;44.70;;
66830;SDS011;53739;44.224;22.528;2023-03-02T02:57:17;86.10;;;44.97;;
66830;SDS011;53739;44.224;22.528;2023-03-02T02:59:48;84.00;;;45.15;;
66830;SDS011;53739;44.224;22.528;2023-03-02T03:02:18;84.38;;;44.75;;
66830;SDS011;53739;44.224;22.528;2023-03-02T03:04:46;86.13;;;45.50;;
66830;SDS011;53739;44.224;22.528;2023-03-02T03:07:16;101.03;;;45.65;;
66830;SDS011;53739;44.224;22.528;2023-03-02T03:09:47;99.88;;;48.58;;
66830;SDS011;53739;44.224;22.528;2023-03-02T03:12:33;85.72;;;45.67;;
66830;SDS011;53739;44.224;22.528;2023-03-02T03:15:00;83.38;;;47.28;;
66830;SDS011;53739;44.224;22.528;2023-03-02T03:17:27;97.60;;;50.28;;
66830;SDS011;53739;44.224;22.528;2023-03-02T03:19:53;88.80;;;49.15;;
66830;SDS011;53739;44.224;22.528;2023-03-02T03:22:18;98.35;;;53.75;;
66830;SDS011;53739;44.224;22.528;2023-03-02T03:24:44;96.53;;;51.47;;
66830;SDS011;53739;44.224;22.528;2023-03-02T03:27:12;94.53;;;50.15;;
66830;SDS011;53739;44.224;22.528;2023-03-02T03:29:40;100.47;;;50.30;;
66830;SDS011;53739;44.224;22.528;2023-03-02T03:32:08;94.90;;;48.65;;
66830;SDS011;53739;44.224;22.528;2023-03-02T03:34:34;86.70;;;42.55;;
66830;SDS011;53739;44.224;22.528;2023-03-02T03:37:05;87.80;;;44.88;;
66830;SDS011;53739;44.224;22.528;2023-03-02T03:39:32;98.65;;;46.58;;
66830;SDS011;53739;44.224;22.528;2023-03-02T03:41:58;82.53;;;43.83;;
66830;SDS011;53739;44.224;22.528;2023-03-02T03:44:24;76.28;;;43.00;;
66830;SDS011;53739;44.224;22.528;2023-03-02T03:46:50;84.45;;;43.70;;
66830;SDS011;53739;44.224;22.528;2023-03-02T03:49:15;79.88;;;43.63;;
66830;SDS011;53739;44.224;22.528;2023-03-02T03:51:41;76.22;;;41.25;;
66830;SDS011;53739;44.224;22.528;2023-03-02T03:54:07;80.72;;;42.53;;
66830;SDS011;53739;44.224;22.528;2023-03-02T03:56:35;83.68;;;40.70;;
66830;SDS011;53739;44.224;22.528;2023-03-02T03:59:04;72.15;;;40.05;;
66830;SDS011;53739;44.224;22.528;2023-03-02T04:01:35;78.40;;;40.17;;
66830;SDS011;53739;44.224;22.528;2023-03-02T04:04:07;89.78;;;44.30;;
66830;SDS011;53739;44.224;22.528;2023-03-02T04:06:34;83.75;;;44.38;;
66830;SDS011;53739;44.224;22.528;2023-03-02T04:09:00;83.30;;;42.88;;
66830;SDS011;53739;44.224;22.528;2023-03-02T04:11:35;77.75;;;43.50;;
66830;SDS011;53739;44.224;22.528;2023-03-02T04:14:05;89.85;;;47.85;;
66830;SDS011;53739;44.224;22.528;2023-03-02T04:16:31;97.65;;;50.70;;
66830;SDS011;53739;44.224;22.528;2023-03-02T04:18:58;81.57;;;44.53;;
66830;SDS011;53739;44.224;22.528;2023-03-02T04:21:24;85.85;;;47.05;;
66830;SDS011;53739;44.224;22.528;2023-03-02T04:23:51;87.20;;;44.88;;
66830;SDS011;53739;44.224;22.528;2023-03-02T04:26:17;77.88;;;42.65;;
66830;SDS011;53739;44.224;22.528;2023-03-02T04:28:43;83.25;;;45.90;;
66830;SDS011;53739;44.224;22.528;2023-03-02T04:31:09;79.20;;;43.67;;
66830;SDS011;53739;44.224;22.528;2023-03-02T04:33:34;80.03;;;43.63;;
66830;SDS011;53739;44.224;22.528;2023-03-02T04:36:00;76.80;;;41.58;;
66830;SDS011;53739;44.224;22.528;2023-03-02T04:38:26;85.95;;;48.58;;
66830;SDS011;53739;44.224;22.528;2023-03-02T04:40:56;109.20;;;55.47;;
66830;SDS011;53739;44.224;22.528;2023-03-02T04:43:23;82.03;;;45.50;;
66830;SDS011;53739;44.224;22.528;2023-03-02T04:45:52;100.07;;;50.42;;
66830;SDS011;53739;44.224;22.528;2023-03-02T04:48:18;98.35;;;52.17;;
66830;SDS011;53739;44.224;22.528;2023-03-02T04:50:46;101.63;;;57.13;;
66830;SDS011;53739;44.224;22.528;2023-03-02T04:53:11;130.45;;;71.03;;
66830;SDS011;53739;44.224;22.528;2023-03-02T04:55:37;122.22;;;66.65;;
66830;SDS011;53739;44.224;22.528;2023-03-02T04:58:03;118.97;;;63.50;;
66830;SDS011;53739;44.224;22.528;2023-03-02T05:00:29;134.43;;;69.75;;
66830;SDS011;53739;44.224;22.528;2023-03-02T05:02:58;120.00;;;62.33;;
66830;SDS011;53739;44.224;22.528;2023-03-02T05:05:24;109.70;;;58.92;;
66830;SDS011;53739;44.224;22.528;2023-03-02T05:07:51;101.95;;;58.15;;
66830;SDS011;53739;44.224;22.528;2023-03-02T05:10:18;95.30;;;53.97;;
66830;SDS011;53739;44.224;22.528;2023-03-02T05:12:44;93.45;;;53.30;;
66830;SDS011;53739;44.224;22.528;2023-03-02T05:15:32;85.53;;;45.92;;
66830;SDS011;53739;44.224;22.528;2023-03-02T05:17:59;83.07;;;44.83;;
66830;SDS011;53739;44.224;22.528;2023-03-02T05:20:25;78.07;;;43.45;;
66830;SDS011;53739;44.224;22.528;2023-03-02T05:22:54;71.13;;;42.45;;
66830;SDS011;53739;44.224;22.528;2023-03-02T05:25:22;72.82;;;40.60;;
66830;SDS011;53739;44.224;22.528;2023-03-02T05:27:49;78.85;;;44.70;;
66830;SDS011;53739;44.224;22.528;2023-03-02T05:30:16;78.00;;;40.85;;
66830;SDS011;53739;44.224;22.528;2023-03-02T05:32:43;84.25;;;48.00;;
66830;SDS011;53739;44.224;22.528;2023-03-02T05:35:10;80.45;;;44.53;;
66830;SDS011;53739;44.224;22.528;2023-03-02T05:37:36;76.55;;;42.17;;
66830;SDS011;53739;44.224;22.528;2023-03-02T05:40:05;89.95;;;45.45;;
66830;SDS011;53739;44.224;22.528;2023-03-02T05:42:33;109.90;;;55.75;;
66830;SDS011;53739;44.224;22.528;2023-03-02T05:45:00;116.90;;;62.10;;
66830;SDS011;53739;44.224;22.528;2023-03-02T05:47:27;125.07;;;65.97;;
66830;SDS011;53739;44.224;22.528;2023-03-02T05:49:52;122.32;;;65.50;;
66830;SDS011;53739;44.224;22.528;2023-03-02T05:52:18;139.13;;;72.40;;
66830;SDS011;53739;44.224;22.528;2023-03-02T05:54:44;134.45;;;73.25;;
66830;SDS011;53739;44.224;22.528;2023-03-02T05:57:09;112.78;;;60.35;;
66830;SDS011;53739;44.224;22.528;2023-03-02T05:59:36;118.80;;;56.33;;
66830;SDS011;53739;44.224;22.528;2023-03-02T06:02:02;82.38;;;44.85;;
66830;SDS011;53739;44.224;22.528;2023-03-02T06:04:28;89.40;;;44.85;;
66830;SDS011;53739;44.224;22.528;2023-03-02T06:06:54;95.57;;;50.35;;
66830;SDS011;53739;44.224;22.528;2023-03-02T06:09:19;103.55;;;54.95;;
66830;SDS011;53739;44.224;22.528;2023-03-02T06:11:46;114.50;;;60.45;;
66830;SDS011;53739;44.224;22.528;2023-03-02T06:16:43;87.38;;;48.45;;
66830;SDS011;53739;44.224;22.528;2023-03-02T06:19:08;91.00;;;49.55;;
66830;SDS011;53739;44.224;22.528;2023-03-02T06:21:34;90.10;;;48.70;;
66830;SDS011;53739;44.224;22.528;2023-03-02T06:24:00;108.97;;;59.13;;
66830;SDS011;53739;44.224;22.528;2023-03-02T06:26:25;113.72;;;57.47;;
66830;SDS011;53739;44.224;22.528;2023-03-02T06:28:51;95.93;;;54.63;;
66830;SDS011;53739;44.224;22.528;2023-03-02T06:31:17;103.25;;;54.95;;
66830;SDS011;53739;44.224;22.528;2023-03-02T06:33:43;107.82;;;57.17;;
66830;SDS011;53739;44.224;22.528;2023-03-02T06:36:08;107.35;;;54.20;;
66830;SDS011;53739;44.224;22.528;2023-03-02T06:38:36;98.03;;;49.85;;
66830;SDS011;53739;44.224;22.528;2023-03-02T06:41:02;82.30;;;44.65;;
66830;SDS011;53739;44.224;22.528;2023-03-02T06:43:28;94.85;;;48.42;;
66830;SDS011;53739;44.224;22.528;2023-03-02T06:45:54;94.72;;;49.40;;
66830;SDS011;53739;44.224;22.528;2023-03-02T06:48:19;102.03;;;51.95;;
66830;SDS011;53739;44.224;22.528;2023-03-02T06:50:45;126.95;;;67.25;;
66830;SDS011;53739;44.224;22.528;2023-03-02T06:53:11;129.10;;;65.03;;
66830;SDS011;53739;44.224;22.528;2023-03-02T06:55:37;112.53;;;61.47;;
66830;SDS011;53739;44.224;22.528;2023-03-02T06:58:02;118.63;;;68.75;;
66830;SDS011;53739;44.224;22.528;2023-03-02T07:00:28;145.75;;;83.22;;
66830;SDS011;53739;44.224;22.528;2023-03-02T07:02:54;98.70;;;55.83;;
66830;SDS011;53739;44.224;22.528;2023-03-02T07:05:20;90.45;;;49.33;;
66830;SDS011;53739;44.224;22.528;2023-03-02T07:07:48;87.00;;;50.67;;
66830;SDS011;53739;44.224;22.528;2023-03-02T07:10:14;84.10;;;49.13;;
66830;SDS011;53739;44.224;22.528;2023-03-02T07:12:40;96.25;;;53.85;;
66830;SDS011;53739;44.224;22.528;2023-03-02T07:15:06;86.15;;;50.58;;
66830;SDS011;53739;44.224;22.528;2023-03-02T07:17:38;109.82;;;58.33;;
66830;SDS011;53739;44.224;22.528;2023-03-02T07:20:05;94.13;;;53.22;;
66830;SDS011;53739;44.224;22.528;2023-03-02T07:22:31;87.20;;;46.28;;
66830;SDS011;53739;44.224;22.528;2023-03-02T07:24:57;78.55;;;43.47;;
66830;SDS011;53739;44.224;22.528;2023-03-02T07:27:23;65.03;;;39.28;;
66830;SDS011;53739;44.224;22.528;2023-03-02T07:29:49;69.88;;;41.10;;
66830;SDS011;53739;44.224;22.528;2023-03-02T07:32:14;80.45;;;43.40;;
66830;SDS011;53739;44.224;22.528;2023-03-02T07:34:40;75.72;;;43.85;;
66830;SDS011;53739;44.224;22.528;2023-03-02T07:37:06;78.65;;;46.40;;
66830;SDS011;53739;44.224;22.528;2023-03-02T07:39:31;70.93;;;40.92;;
66830;SDS011;53739;44.224;22.528;2023-03-02T07:41:58;81.82;;;43.35;;
66830;SDS011;53739;44.224;22.528;2023-03-02T07:44:25;65.63;;;38.50;;
66830;SDS011;53739;44.224;22.528;2023-03-02T07:46:51;65.38;;;37.30;;
66830;SDS011;53739;44.224;22.528;2023-03-02T07:49:17;69.93;;;43.80;;
66830;SDS011;53739;44.224;22.528;2023-03-02T07:51:42;73.18;;;44.15;;
66830;SDS011;53739;44.224;22.528;2023-03-02T07:54:08;76.43;;;46.35;;
66830;SDS011;53739;44.224;22.528;2023-03-02T07:56:34;70.50;;;44.13;;
66830;SDS011;53739;44.224;22.528;2023-03-02T07:59:00;76.95;;;44.67;;
66830;SDS011;53739;44.224;22.528;2023-03-02T08:01:26;60.10;;;38.50;;
66830;SDS011;53739;44.224;22.528;2023-03-02T08:03:52;60.75;;;36.25;;
66830;SDS011;53739;44.224;22.528;2023-03-02T08:06:18;66.45;;;41.47;;
66830;SDS011;53739;44.224;22.528;2023-03-02T08:08:44;60.95;;;37.83;;
66830;SDS011;53739;44.224;22.528;2023-03-02T08:11:11;58.22;;;34.22;;
66830;SDS011;53739;44.224;22.528;2023-03-02T08:13:39;66.97;;;41.97;;
66830;SDS011;53739;44.224;22.528;2023-03-02T08:16:05;70.53;;;39.58;;
66830;SDS011;53739;44.224;22.528;2023-03-02T08:18:32;71.95;;;43.65;;
66830;SDS011;53739;44.224;22.528;2023-03-02T08:20:59;73.43;;;43.50;;
66830;SDS011;53739;44.224;22.528;2023-03-02T08:23:25;67.20;;;41.90;;
66830;SDS011;53739;44.224;22.528;2023-03-02T08:25:51;64.72;;;40.47;;
66830;SDS011;53739;44.224;22.528;2023-03-02T08:28:18;123.07;;;74.85;;
66830;SDS011;53739;44.224;22.528;2023-03-02T08:30:46;115.47;;;80.97;;
66830;SDS011;53739;44.224;22.528;2023-03-02T08:33:27;116.47;;;89.13;;
66830;SDS011;53739;44.224;22.528;2023-03-02T08:35:58;80.03;;;52.60;;
66830;SDS011;53739;44.224;22.528;2023-03-02T08:38:25;91.50;;;60.20;;
66830;SDS011;53739;44.224;22.528;2023-03-02T08:40:51;93.68;;;56.83;;
66830;SDS011;53739;44.224;22.528;2023-03-02T08:43:18;79.88;;;54.30;;
66830;SDS011;53739;44.224;22.528;2023-03-02T08:45:44;80.22;;;50.03;;
66830;SDS011;53739;44.224;22.528;2023-03-02T08:48:14;90.40;;;53.58;;
66830;SDS011;53739;44.224;22.528;2023-03-02T08:50:40;88.85;;;56.25;;
66830;SDS011;53739;44.224;22.528;2023-03-02T08:53:05;100.72;;;59.55;;
66830;SDS011;53739;44.224;22.528;2023-03-02T08:55:33;81.32;;;47.45;;
66830;SDS011;53739;44.224;22.528;2023-03-02T08:58:00;89.53;;;52.67;;
66830;SDS011;53739;44.224;22.528;2023-03-02T09:00:27;87.10;;;48.35;;
66830;SDS011;53739;44.224;22.528;2023-03-02T09:02:52;89.60;;;53.75;;
66830;SDS011;53739;44.224;22.528;2023-03-02T09:05:18;107.38;;;66.05;;
66830;SDS011;53739;44.224;22.528;2023-03-02T09:07:44;102.05;;;60.55;;
66830;SDS011;53739;44.224;22.528;2023-03-02T09:10:09;84.20;;;49.30;;
66830;SDS011;53739;44.224;22.528;2023-03-02T09:12:35;95.55;;;56.95;;
66830;SDS011;53739;44.224;22.528;2023-03-02T09:15:01;88.30;;;51.95;;
66830;SDS011;53739;44.224;22.528;2023-03-02T09:17:27;88.80;;;49.85;;
66830;SDS011;53739;44.224;22.528;2023-03-02T09:19:52;97.68;;;60.70;;
66830;SDS011;53739;44.224;22.528;2023-03-02T09:22:18;111.97;;;60.72;;
66830;SDS011;53739;44.224;22.528;2023-03-02T09:24:44;103.25;;;58.17;;
66830;SDS011;53739;44.224;22.528;2023-03-02T09:27:09;98.78;;;57.80;;
66830;SDS011;53739;44.224;22.528;2023-03-02T09:29:35;112.57;;;67.00;;
66830;SDS011;53739;44.224;22.528;2023-03-02T09:32:01;92.65;;;57.97;;
66830;SDS011;53739;44.224;22.528;2023-03-02T09:34:27;95.57;;;52.35;;
66830;SDS011;53739;44.224;22.528;2023-03-02T09:36:53;113.40;;;64.78;;
66830;SDS011;53739;44.224;22.528;2023-03-02T09:39:19;96.72;;;56.85;;
66830;SDS011;53739;44.224;22.528;2023-03-02T09:47:34;100.30;;;58.08;;
66830;SDS011;53739;44.224;22.528;2023-03-02T09:50:09;104.15;;;62.55;;
66830;SDS011;53739;44.224;22.528;2023-03-02T09:52:55;93.78;;;55.47;;
66830;SDS011;53739;44.224;22.528;2023-03-02T09:55:31;107.35;;;63.97;;
66830;SDS011;53739;44.224;22.528;2023-03-02T09:58:00;109.22;;;65.05;;
66830;SDS011;53739;44.224;22.528;2023-03-02T10:00:31;90.05;;;54.42;;
66830;SDS011;53739;44.224;22.528;2023-03-02T10:03:01;82.78;;;47.05;;
66830;SDS011;53739;44.224;22.528;2023-03-02T10:08:20;85.85;;;53.55;;
66830;SDS011;53739;44.224;22.528;2023-03-02T10:13:27;89.85;;;55.25;;
66830;SDS011;53739;44.224;22.528;2023-03-02T10:21:38;100.95;;;57.85;;
66830;SDS011;53739;44.224;22.528;2023-03-02T10:27:11;103.60;;;62.17;;
66830;SDS011;53739;44.224;22.528;2023-03-02T10:34:47;63.13;;;39.15;;
66830;SDS011;53739;44.224;22.528;2023-03-02T10:37:18;58.38;;;34.55;;
66830;SDS011;53739;44.224;22.528;2023-03-02T10:39:52;54.40;;;33.85;;
66830;SDS011;53739;44.224;22.528;2023-03-02T10:42:28;75.88;;;44.05;;
66830;SDS011;53739;44.224;22.528;2023-03-02T10:45:40;70.68;;;43.40;;
66830;SDS011;53739;44.224;22.528;2023-03-02T10:50:33;85.57;;;48.63;;
66830;SDS011;53739;44.224;22.528;2023-03-02T10:52:59;67.65;;;40.88;;
66830;SDS011;53739;44.224;22.528;2023-03-02T10:55:25;78.05;;;45.83;;
66830;SDS011;53739;44.224;22.528;2023-03-02T10:58:25;77.55;;;46.70;;
66830;SDS011;53739;44.224;22.528;2023-03-02T11:00:57;93.75;;;54.00;;
66830;SDS011;53739;44.224;22.528;2023-03-02T11:03:31;91.20;;;54.85;;
66830;SDS011;53739;44.224;22.528;2023-03-02T11:06:08;82.38;;;50.22;;
66830;SDS011;53739;44.224;22.528;2023-03-02T11:08:42;83.43;;;44.38;;
66830;SDS011;53739;44.224;22.528;2023-03-02T11:11:21;93.25;;;54.28;;
66830;SDS011;53739;44.224;22.528;2023-03-02T11:13:48;89.55;;;53.35;;
66830;SDS011;53739;44.224;22.528;2023-03-02T11:24:07;129.13;;;76.70;;
66830;SDS011;53739;44.224;22.528;2023-03-02T11:26:44;88.47;;;54.72;;
66830;SDS011;53739;44.224;22.528;2023-03-02T11:34:59;54.10;;;33.13;;
66830;SDS011;53739;44.224;22.528;2023-03-02T11:37:49;62.50;;;37.80;;
66830;SDS011;53739;44.224;22.528;2023-03-02T11:40:21;61.58;;;38.53;;
66830;SDS011;53739;44.224;22.528;2023-03-02T11:43:07;52.42;;;32.08;;
66830;SDS011;53739;44.224;22.528;2023-03-02T11:45:35;78.80;;;41.05;;
66830;SDS011;53739;44.224;22.528;2023-03-02T11:48:07;62.55;;;39.00;;
66830;SDS011;53739;44.224;22.528;2023-03-02T11:56:29;61.67;;;38.28;;
66830;SDS011;53739;44.224;22.528;2023-03-02T11:58:59;71.95;;;41.25;;
66830;SDS011;53739;44.224;22.528;2023-03-02T12:01:29;73.68;;;43.10;;
66830;SDS011;53739;44.224;22.528;2023-03-02T12:06:52;57.28;;;37.35;;
66830;SDS011;53739;44.224;22.528;2023-03-02T12:11:51;86.00;;;49.25;;
66830;SDS011;53739;44.224;22.528;2023-03-02T12:14:34;104.00;;;54.97;;
66830;SDS011;53739;44.224;22.528;2023-03-02T12:19:43;137.20;;;77.78;;
66830;SDS011;53739;44.224;22.528;2023-03-02T12:22:10;149.63;;;85.00;;
66830;SDS011;53739;44.224;22.528;2023-03-02T12:24:40;290.48;;;160.88;;
66830;SDS011;53739;44.224;22.528;2023-03-02T12:29:50;92.28;;;55.13;;
66830;SDS011;53739;44.224;22.528;2023-03-02T12:32:22;88.68;;;50.50;;
66830;SDS011;53739;44.224;22.528;2023-03-02T12:37:18;78.55;;;47.90;;
66830;SDS011;53739;44.224;22.528;2023-03-02T12:48:24;73.78;;;47.33;;
66830;SDS011;53739;44.224;22.528;2023-03-02T12:50:59;85.50;;;53.88;;
66830;SDS011;53739;44.224;22.528;2023-03-02T12:53:28;88.40;;;54.60;;
66830;SDS011;53739;44.224;22.528;2023-03-02T12:55:54;82.35;;;52.08;;
66830;SDS011;53739;44.224;22.528;2023-03-02T12:58:21;78.20;;;48.20;;
66830;SDS011;53739;44.224;22.528;2023-03-02T13:00:55;124.85;;;70.72;;
66830;SDS011;53739;44.224;22.528;2023-03-02T13:03:22;103.35;;;62.15;;
66830;SDS011;53739;44.224;22.528;2023-03-02T13:05:50;101.90;;;59.08;;
66830;SDS011;53739;44.224;22.528;2023-03-02T13:08:17;81.18;;;48.45;;
66830;SDS011;53739;44.224;22.528;2023-03-02T13:10:52;81.95;;;49.50;;
66830;SDS011;53739;44.224;22.528;2023-03-02T13:13:21;80.03;;;50.20;;
66830;SDS011;53739;44.224;22.528;2023-03-02T13:15:58;70.95;;;44.17;;
66830;SDS011;53739;44.224;22.528;2023-03-02T13:18:29;70.47;;;46.17;;
66830;SDS011;53739;44.224;22.528;2023-03-02T13:20:57;72.85;;;44.38;;
66830;SDS011;53739;44.224;22.528;2023-03-02T13:23:25;72.70;;;45.33;;
66830;SDS011;53739;44.224;22.528;2023-03-02T13:25:53;69.78;;;45.25;;
66830;SDS011;53739;44.224;22.528;2023-03-02T13:28:21;77.85;;;46.45;;
66830;SDS011;53739;44.224;22.528;2023-03-02T13:30:49;71.82;;;41.95;;
66830;SDS011;53739;44.224;22.528;2023-03-02T13:33:23;75.00;;;44.85;;
66830;SDS011;53739;44.224;22.528;2023-03-02T13:35:50;83.70;;;45.65;;
66830;SDS011;53739;44.224;22.528;2023-03-02T13:38:19;76.97;;;44.47;;
66830;SDS011;53739;44.224;22.528;2023-03-02T13:40:52;71.32;;;45.40;;
66830;SDS011;53739;44.224;22.528;2023-03-02T13:43:20;75.97;;;46.20;;
66830;SDS011;53739;44.224;22.528;2023-03-02T13:46:00;53.03;;;35.47;;
66830;SDS011;53739;44.224;22.528;2023-03-02T13:48:28;68.63;;;44.63;;
66830;SDS011;53739;44.224;22.528;2023-03-02T13:53:53;69.90;;;40.58;;
66830;SDS011;53739;44.224;22.528;2023-03-02T13:56:23;74.10;;;44.78;;
66830;SDS011;53739;44.224;22.528;2023-03-02T13:58:59;64.75;;;39.88;;
66830;SDS011;53739;44.224;22.528;2023-03-02T14:01:26;79.53;;;47.67;;
66830;SDS011;53739;44.224;22.528;2023-03-02T14:03:52;86.65;;;54.38;;
66830;SDS011;53739;44.224;22.528;2023-03-02T14:06:18;61.72;;;37.33;;
66830;SDS011;53739;44.224;22.528;2023-03-02T14:08:44;55.65;;;33.85;;
66830;SDS011;53739;44.224;22.528;2023-03-02T14:11:11;62.08;;;38.92;;
66830;SDS011;53739;44.224;22.528;2023-03-02T14:13:42;59.25;;;35.60;;
66830;SDS011;53739;44.224;22.528;2023-03-02T14:16:13;74.97;;;45.03;;
66830;SDS011;53739;44.224;22.528;2023-03-02T14:18:41;71.90;;;42.88;;
66830;SDS011;53739;44.224;22.528;2023-03-02T14:21:18;68.05;;;41.58;;
66830;SDS011;53739;44.224;22.528;2023-03-02T14:23:45;79.85;;;46.92;;
66830;SDS011;53739;44.224;22.528;2023-03-02T14:29:28;68.72;;;44.47;;
66830;SDS011;53739;44.224;22.528;2023-03-02T14:34:24;115.82;;;62.45;;
66830;SDS011;53739;44.224;22.528;2023-03-02T14:36:51;110.63;;;62.72;;
66830;SDS011;53739;44.224;22.528;2023-03-02T14:42:00;98.32;;;64.82;;
66830;SDS011;53739;44.224;22.528;2023-03-02T14:44:27;98.75;;;58.80;;
66830;SDS011;53739;44.224;22.528;2023-03-02T14:46:53;88.93;;;64.10;;
66830;SDS011;53739;44.224;22.528;2023-03-02T14:49:19;92.70;;;60.00;;
66830;SDS011;53739;44.224;22.528;2023-03-02T14:51:48;107.25;;;64.55;;
66830;SDS011;53739;44.224;22.528;2023-03-02T14:54:18;80.13;;;50.50;;
66830;SDS011;53739;44.224;22.528;2023-03-02T14:56:44;92.03;;;55.63;;
66830;SDS011;53739;44.224;22.528;2023-03-02T14:59:13;88.57;;;56.67;;
66830;SDS011;53739;44.224;22.528;2023-03-02T15:01:40;76.72;;;49.30;;
66830;SDS011;53739;44.224;22.528;2023-03-02T15:04:08;83.65;;;51.28;;
66830;SDS011;53739;44.224;22.528;2023-03-02T15:06:36;161.43;;;107.25;;
66830;SDS011;53739;44.224;22.528;2023-03-02T15:09:03;179.88;;;137.45;;
66830;SDS011;53739;44.224;22.528;2023-03-02T15:11:29;130.75;;;99.38;;
66830;SDS011;53739;44.224;22.528;2023-03-02T15:13:55;131.00;;;91.45;;
66830;SDS011;53739;44.224;22.528;2023-03-02T15:16:21;174.77;;;128.05;;
66830;SDS011;53739;44.224;22.528;2023-03-02T15:18:47;148.65;;;95.82;;
66830;SDS011;53739;44.224;22.528;2023-03-02T15:21:15;156.93;;;92.95;;
66830;SDS011;53739;44.224;22.528;2023-03-02T15:23:42;149.88;;;90.05;;
66830;SDS011;53739;44.224;22.528;2023-03-02T15:26:08;161.65;;;100.22;;
66830;SDS011;53739;44.224;22.528;2023-03-02T15:28:35;164.18;;;99.72;;
66830;SDS011;53739;44.224;22.528;2023-03-02T15:31:05;138.13;;;84.00;;
66830;SDS011;53739;44.224;22.528;2023-03-02T15:33:32;148.65;;;93.30;;
66830;SDS011;53739;44.224;22.528;2023-03-02T15:35:57;133.88;;;76.43;;